Time;durP1;ratioP1;P1;durP2;ratioP2;P2;SDS_P1;SDS_P2;PMS_P1;PMS_P2;Temp;Humidity;BMP_temperature;BMP_pressure;BME280_temperature;BME280_humidity;BME280_pressure;Samples;Min_cycle;Max_cycle;Signal;HPM_P1;HPM_P2
2023/02/16 00:32:11;;;;;;;3.35;3.15;;;2.30;98.30;;;;;;6143757;23;20411;-78
2023/02/16 00:34:41;;;;;;;3.70;3.50;;;2.20;99.90;;;;;;6113867;23;20429;-79
2023/02/16 00:37:11;;;;;;;3.63;3.42;;;2.10;99.90;;;;;;6119484;23;20352;-77
2023/02/16 00:39:40;;;;;;;3.80;3.60;;;2.20;99.90;;;;;;6146191;23;20473;-76
2023/02/16 00:42:19;;;;;;;4.28;4.07;;;2.10;99.90;;;;;;6121945;23;20356;-78
2023/02/16 00:44:56;;;;;;;3.50;3.30;;;2.20;99.90;;;;;;6123326;23;20426;-78
2023/02/16 00:47:29;;;;;;;3.63;3.42;;;2.10;99.90;;;;;;6122427;23;20360;-78
2023/02/16 00:49:57;;;;;;;3.38;3.17;;;2.10;99.90;;;;;;6122527;23;20383;-78
2023/02/16 00:52:37;;;;;;;3.80;3.60;;;2.10;99.90;;;;;;6146434;23;20352;-78
2023/02/16 00:55:10;;;;;;;4.00;3.70;;;2.10;99.90;;;;;;6122158;23;20368;-78
2023/02/16 00:57:59;;;;;;;3.85;3.65;;;2.00;99.90;;;;;;6123432;23;20503;-78
2023/02/16 01:00:30;;;;;;;4.35;4.10;;;2.10;99.90;;;;;;6147359;23;20370;-78
2023/02/16 01:03:00;;;;;;;4.10;3.80;;;2.20;99.90;;;;;;6148071;23;20380;-77
2023/02/16 01:05:28;;;;;;;3.70;3.50;;;2.20;99.90;;;;;;6118629;23;20357;-78
2023/02/16 01:13:31;;;;;;;3.55;3.35;;;2.20;99.90;;;;;;6117767;23;20380;-79
2023/02/16 01:16:01;;;;;;;3.20;3.00;;;2.10;99.90;;;;;;6094032;23;20361;-78
2023/02/16 01:18:28;;;;;;;2.92;2.83;;;1.90;99.90;;;;;;6091881;23;20413;-77
2023/02/16 01:20:55;;;;;;;3.10;3.00;;;1.80;99.90;;;;;;6095339;23;20384;-78
2023/02/16 01:23:22;;;;;;;3.47;3.28;;;1.80;99.90;;;;;;6092566;23;20437;-77
2023/02/16 01:25:50;;;;;;;3.70;3.50;;;1.70;99.90;;;;;;6094537;23;20386;-77
2023/02/16 01:28:22;;;;;;;3.00;2.80;;;1.80;99.90;;;;;;6094469;23;20401;-78
2023/02/16 01:30:51;;;;;;;3.17;3.08;;;1.70;99.90;;;;;;6117438;23;20408;-78
2023/02/16 01:33:19;;;;;;;3.17;3.08;;;1.70;99.90;;;;;;6093738;23;20471;-78
2023/02/16 01:35:46;;;;;;;3.38;3.13;;;1.80;99.90;;;;;;6117463;23;22047;-78
2023/02/16 01:38:23;;;;;;;3.30;3.15;;;1.80;99.90;;;;;;6094650;23;20373;-77
2023/02/16 01:41:28;;;;;;;3.70;3.50;;;1.80;99.90;;;;;;6118087;23;20384;-77
2023/02/16 01:44:10;;;;;;;3.70;3.50;;;1.90;99.90;;;;;;6093393;23;20459;-78
2023/02/16 01:46:49;;;;;;;3.03;2.85;;;2.00;99.90;;;;;;6093541;23;20401;-77
2023/02/16 01:49:19;;;;;;;3.17;2.97;;;2.10;99.90;;;;;;6120234;23;20453;-77
2023/02/16 01:52:04;;;;;;;3.13;2.95;;;2.00;99.90;;;;;;6118554;23;20366;-77
2023/02/16 01:54:49;;;;;;;2.83;2.63;;;2.10;99.90;;;;;;6095706;23;20429;-78
2023/02/16 01:57:40;;;;;;;2.80;2.60;;;2.30;99.90;;;;;;6119393;23;20416;-77
2023/02/16 02:00:12;;;;;;;2.20;2.10;;;2.30;99.90;;;;;;6094257;23;20412;-76
2023/02/16 11:28:50;;;;;;;2.73;2.53;;;14.50;41.80;;;;;;6106947;23;20392;-82
2023/02/16 11:31:31;;;;;;;2.50;2.40;;;14.40;41.40;;;;;;6097482;23;20712;-83
2023/02/16 11:34:03;;;;;;;2.88;2.67;;;14.60;41.30;;;;;;6096453;23;20764;-83
2023/02/16 11:36:43;;;;;;;2.78;2.65;;;14.60;41.30;;;;;;6097467;23;20394;-83
2023/02/16 11:39:13;;;;;;;2.75;2.58;;;14.60;42.30;;;;;;6121155;23;20406;-83
2023/02/16 11:42:08;;;;;;;2.75;2.45;;;14.70;41.20;;;;;;6123281;23;20387;-82
2023/02/16 11:44:43;;;;;;;3.03;2.83;;;14.60;41.50;;;;;;6119986;23;20376;-84
2023/02/16 11:47:33;;;;;;;2.88;2.60;;;14.80;41.20;;;;;;6098759;23;20376;-82
2023/02/16 11:50:27;;;;;;;3.05;2.83;;;14.90;41.70;;;;;;6098140;23;20678;-81
2023/02/16 11:53:14;;;;;;;3.08;2.88;;;15.10;41.20;;;;;;6097020;23;20380;-83
2023/02/16 11:55:44;;;;;;;2.58;2.38;;;14.60;39.80;;;;;;6094550;23;20816;-82
2023/02/16 11:58:28;;;;;;;2.88;2.67;;;14.80;41.00;;;;;;6093009;23;20379;-81
2023/02/16 12:01:17;;;;;;;2.60;2.47;;;14.60;40.90;;;;;;6096925;23;20902;-83
2023/02/16 12:04:06;;;;;;;3.10;2.80;;;14.90;41.30;;;;;;6071260;23;20387;-82
2023/02/16 12:06:44;;;;;;;2.78;2.58;;;15.00;42.40;;;;;;6068630;23;20464;-83
2023/02/16 12:09:19;;;;;;;2.50;2.30;;;15.50;40.80;;;;;;6092632;23;20380;-82
2023/02/16 12:12:06;;;;;;;2.70;2.50;;;15.70;38.80;;;;;;6065735;23;20396;-80
2023/02/16 12:14:33;;;;;;;2.58;2.38;;;15.20;39.10;;;;;;6066842;23;20393;-81
2023/02/16 12:17:27;;;;;;;2.33;2.22;;;15.30;39.30;;;;;;6064904;23;20382;-82
2023/02/16 12:20:22;;;;;;;3.00;2.80;;;15.40;39.50;;;;;;6065253;23;20922;-83
2023/02/16 12:23:05;;;;;;;3.05;2.85;;;15.40;39.40;;;;;;6059515;23;20389;-81
2023/02/16 12:25:38;;;;;;;2.80;2.60;;;15.70;39.30;;;;;;6068054;23;20437;-82
2023/02/16 12:28:11;;;;;;;2.92;2.72;;;15.40;40.00;;;;;;6062711;23;20438;-82
2023/02/16 12:30:54;;;;;;;3.10;2.90;;;15.50;39.70;;;;;;6062730;23;20697;-81
2023/02/16 12:33:39;;;;;;;2.97;2.78;;;15.80;40.00;;;;;;6063687;23;20394;-83
2023/02/16 12:36:34;;;;;;;3.00;2.80;;;16.20;39.10;;;;;;6063180;23;20457;-84
2023/02/16 12:39:23;;;;;;;2.70;2.50;;;16.50;39.20;;;;;;6062558;23;20407;-81
2023/02/16 12:42:11;;;;;;;2.60;2.47;;;16.50;38.20;;;;;;6065025;23;20443;-84
2023/02/16 12:44:52;;;;;;;3.15;2.90;;;16.40;39.50;;;;;;6039344;23;20408;-84
2023/02/16 12:47:33;;;;;;;2.85;2.65;;;16.30;39.20;;;;;;6062809;23;20371;-83
2023/02/16 12:50:03;;;;;;;2.83;2.63;;;16.20;38.60;;;;;;6063428;23;20386;-83
2023/02/16 12:52:41;;;;;;;2.95;2.75;;;16.20;39.20;;;;;;6064043;23;20387;-83
2023/02/16 12:55:25;;;;;;;2.70;2.50;;;16.10;38.20;;;;;;6063669;23;20379;-83
2023/02/16 12:58:23;;;;;;;3.10;2.90;;;16.50;38.60;;;;;;6064648;23;20386;-83
2023/02/16 13:00:57;;;;;;;3.30;3.00;;;16.90;38.00;;;;;;6062727;23;20425;-83
2023/02/16 13:03:49;;;;;;;2.92;2.72;;;16.80;36.60;;;;;;6063432;23;20855;-83
2023/02/16 13:06:24;;;;;;;2.97;2.77;;;16.90;37.40;;;;;;6063054;23;20772;-83
2023/02/16 13:09:15;;;;;;;3.45;3.25;;;16.90;38.30;;;;;;6064619;23;20423;-82
2023/02/16 13:12:00;;;;;;;3.38;3.17;;;16.70;38.30;;;;;;6064001;23;20439;-83
2023/02/16 13:14:35;;;;;;;3.42;3.22;;;16.50;38.40;;;;;;6066328;23;20387;-83
2023/02/16 13:17:09;;;;;;;3.33;3.13;;;16.60;38.00;;;;;;6065323;23;20435;-83
2023/02/16 13:19:36;;;;;;;3.55;3.35;;;16.50;38.90;;;;;;6063970;23;20463;-83
2023/02/16 13:22:31;;;;;;;3.60;3.35;;;16.70;37.90;;;;;;6041142;23;20402;-83
2023/02/16 13:25:13;;;;;;;3.45;3.25;;;16.80;38.50;;;;;;6064089;23;20423;-83
2023/02/16 13:28:04;;;;;;;4.32;4.03;;;17.00;38.20;;;;;;6064040;23;20383;-82
2023/02/16 13:30:49;;;;;;;3.80;3.50;;;16.90;38.40;;;;;;6065552;23;20383;-83
2023/02/16 13:33:48;;;;;;;4.13;3.83;;;17.00;39.00;;;;;;6064348;23;20458;-82
2023/02/16 13:36:35;;;;;;;3.75;3.55;;;16.90;39.10;;;;;;6065371;23;20371;-83
2023/02/16 13:39:24;;;;;;;4.00;3.70;;;17.20;38.30;;;;;;6064669;23;20779;-84
2023/02/16 13:41:56;;;;;;;4.13;3.83;;;17.60;39.00;;;;;;6065156;23;20391;-83
2023/02/16 13:44:37;;;;;;;4.03;3.72;;;17.20;37.50;;;;;;6066018;23;20821;-83
2023/02/16 13:47:06;;;;;;;3.85;3.50;;;16.60;38.60;;;;;;6066181;23;20450;-84
2023/02/16 13:49:45;;;;;;;4.68;4.28;;;16.70;38.30;;;;;;6068164;23;20466;-84
2023/02/16 13:52:42;;;;;;;3.90;3.70;;;16.70;39.40;;;;;;6067074;23;20387;-81
2023/02/16 13:55:32;;;;;;;3.65;3.45;;;16.90;39.40;;;;;;6043357;23;20378;-82
2023/02/16 13:58:06;;;;;;;4.03;3.72;;;17.00;38.90;;;;;;6068074;23;20833;-80
2023/02/16 14:00:42;;;;;;;3.90;3.70;;;17.00;38.60;;;;;;6068729;23;20371;-83
2023/02/16 14:03:21;;;;;;;4.10;3.80;;;16.90;37.90;;;;;;6067218;23;20379;-82
2023/02/16 14:06:12;;;;;;;4.37;4.07;;;16.50;39.20;;;;;;6063579;23;20394;-82
2023/02/16 14:08:39;;;;;;;4.43;4.13;;;16.60;39.50;;;;;;6064325;23;20367;-82
2023/02/16 14:11:09;;;;;;;4.07;3.78;;;16.50;39.20;;;;;;6064377;23;20395;-81
2023/02/16 14:13:36;;;;;;;4.68;4.38;;;16.70;40.00;;;;;;6064821;23;20379;-82
2023/02/16 14:16:03;;;;;;;4.90;4.50;;;17.00;39.70;;;;;;6066049;23;20840;-81
2023/02/16 14:18:58;;;;;;;4.27;3.97;;;16.70;39.40;;;;;;6063785;23;20450;-83
2023/02/16 14:21:47;;;;;;;5.15;4.75;;;16.80;40.10;;;;;;6063613;23;20458;-82
2023/02/16 14:24:34;;;;;;;5.00;4.70;;;16.70;40.20;;;;;;6064406;23;20379;-82
2023/02/16 14:27:05;;;;;;;4.97;4.68;;;16.60;40.20;;;;;;6066657;23;20716;-78
2023/02/16 14:29:36;;;;;;;5.10;4.80;;;16.40;40.20;;;;;;6094309;23;20412;-78
2023/02/16 14:32:18;;;;;;;4.95;4.65;;;16.40;40.10;;;;;;6068346;23;20676;-78
2023/02/16 14:35:11;;;;;;;5.10;4.70;;;16.50;40.20;;;;;;6068140;23;20382;-80
2023/02/16 14:38:08;;;;;;;4.57;4.28;;;16.40;40.80;;;;;;6068932;23;20881;-79
2023/02/16 14:40:44;;;;;;;4.68;4.35;;;16.40;39.90;;;;;;6092671;23;20696;-79
2023/02/16 14:43:42;;;;;;;4.78;4.47;;;16.20;40.10;;;;;;6068249;23;20409;-78
2023/02/16 14:46:18;;;;;;;4.40;4.10;;;16.20;40.50;;;;;;6067471;23;20433;-77
2023/02/16 14:49:00;;;;;;;4.70;4.32;;;16.30;40.50;;;;;;6067604;23;20382;-78
2023/02/16 14:51:54;;;;;;;4.63;4.32;;;16.30;40.20;;;;;;6068699;23;20381;-78
2023/02/16 14:54:43;;;;;;;5.40;5.00;;;16.00;40.10;;;;;;6067321;23;20429;-79
2023/02/16 14:57:30;;;;;;;5.40;5.00;;;16.00;40.60;;;;;;6067479;23;20432;-77
2023/02/16 15:00:23;;;;;;;5.20;4.80;;;15.90;40.60;;;;;;6067632;23;20377;-79
2023/02/16 15:03:18;;;;;;;4.72;4.32;;;16.00;40.20;;;;;;6068200;23;20759;-78
2023/02/16 15:06:02;;;;;;;5.00;4.60;;;16.10;40.00;;;;;;6056073;23;20389;-78
2023/02/16 15:08:36;;;;;;;4.53;4.22;;;16.00;39.80;;;;;;6092308;23;20381;-78
2023/02/16 15:11:19;;;;;;;5.63;5.22;;;16.10;40.30;;;;;;6068497;23;20432;-79
2023/02/16 15:13:52;;;;;;;7.15;6.60;;;15.90;40.50;;;;;;6066477;23;20417;-79
2023/02/16 15:16:21;;;;;;;5.30;4.95;;;15.90;40.50;;;;;;6068012;23;20772;-79
2023/02/16 15:18:52;;;;;;;4.55;4.25;;;16.00;40.30;;;;;;6065521;23;20734;-78
2023/02/16 15:21:29;;;;;;;4.73;4.43;;;15.80;40.40;;;;;;6067671;23;20382;-79
2023/02/16 15:23:59;;;;;;;4.38;4.07;;;15.80;40.30;;;;;;6067112;23;20386;-78
2023/02/16 15:26:34;;;;;;;4.85;4.55;;;15.90;41.20;;;;;;6067706;23;20417;-78
2023/02/16 15:29:15;;;;;;;4.40;4.10;;;15.80;40.90;;;;;;6092397;23;20380;-78
2023/02/16 15:31:42;;;;;;;4.47;4.18;;;15.80;41.20;;;;;;6092439;23;20401;-79
2023/02/16 15:34:25;;;;;;;4.50;4.20;;;16.00;41.00;;;;;;6068205;23;20373;-78
2023/02/16 15:36:52;;;;;;;4.57;4.25;;;15.80;41.20;;;;;;6045566;23;20384;-78
2023/02/16 15:39:25;;;;;;;4.93;4.57;;;15.80;41.60;;;;;;6067283;23;20381;-78
2023/02/16 15:42:22;;;;;;;5.00;4.60;;;15.80;41.60;;;;;;6070659;23;20429;-78
2023/02/16 15:44:49;;;;;;;4.43;4.13;;;15.80;41.60;;;;;;6066796;23;20444;-79
2023/02/16 15:47:23;;;;;;;5.05;4.57;;;15.80;41.90;;;;;;6067513;23;20382;-78
2023/02/16 15:49:51;;;;;;;4.63;4.32;;;16.00;41.70;;;;;;6092336;23;20385;-78
2023/02/16 15:52:26;;;;;;;4.88;4.40;;;16.00;42.10;;;;;;6067604;23;20370;-78
2023/02/16 15:54:53;;;;;;;5.22;4.78;;;15.90;42.20;;;;;;6066943;23;20496;-79
2023/02/16 15:57:36;;;;;;;4.20;3.90;;;15.90;42.20;;;;;;6067700;23;20382;-79
2023/02/16 16:00:18;;;;;;;4.75;4.40;;;15.90;42.50;;;;;;6064607;23;20452;-78
2023/02/16 16:02:54;;;;;;;4.10;3.83;;;15.90;42.50;;;;;;6065225;23;20381;-79
2023/02/16 16:05:39;;;;;;;4.38;4.07;;;16.00;42.50;;;;;;6067122;23;20385;-78
2023/02/16 16:08:12;;;;;;;4.38;4.07;;;15.90;42.10;;;;;;6091567;23;20389;-78
2023/02/16 16:10:40;;;;;;;4.03;3.77;;;15.90;42.30;;;;;;6067859;23;20381;-78
2023/02/16 16:13:29;;;;;;;3.75;3.53;;;15.80;43.40;;;;;;6066436;23;20471;-78
2023/02/16 16:16:00;;;;;;;4.40;4.10;;;15.80;42.70;;;;;;6092211;23;20424;-77
2023/02/16 16:18:42;;;;;;;4.75;4.40;;;15.70;42.80;;;;;;6066957;23;20377;-78
2023/02/16 16:21:17;;;;;;;3.95;3.65;;;15.60;43.20;;;;;;6092132;23;20384;-78
2023/02/16 16:23:59;;;;;;;3.83;3.63;;;15.50;43.60;;;;;;6067699;23;20377;-79
2023/02/16 16:26:28;;;;;;;4.72;4.43;;;15.50;43.60;;;;;;6067081;23;20377;-78
2023/02/16 16:28:55;;;;;;;4.53;4.22;;;15.30;43.40;;;;;;6066811;23;20432;-78
2023/02/16 16:31:22;;;;;;;4.10;3.80;;;15.10;43.60;;;;;;6066375;23;20385;-78
2023/02/16 16:34:01;;;;;;;4.20;3.80;;;14.90;44.30;;;;;;6064529;23;20449;-78
2023/02/16 16:36:30;;;;;;;4.10;3.80;;;14.70;45.30;;;;;;6064860;23;20365;-78
2023/02/16 16:39:17;;;;;;;4.15;3.85;;;14.60;46.00;;;;;;6066580;23;20377;-79
2023/02/16 16:41:56;;;;;;;4.70;4.40;;;14.50;46.70;;;;;;6065252;23;20370;-78
2023/02/16 16:44:33;;;;;;;4.77;4.37;;;14.20;47.40;;;;;;6064632;23;20417;-78
2023/02/16 16:47:36;;;;;;;4.05;3.80;;;14.10;47.70;;;;;;6091746;23;20417;-78
2023/02/16 16:50:29;;;;;;;5.57;4.67;;;13.90;47.10;;;;;;6061609;23;20408;-78
2023/02/16 16:52:56;;;;;;;3.60;3.40;;;13.60;47.50;;;;;;6066004;23;20377;-78
2023/02/16 16:55:28;;;;;;;4.22;3.92;;;13.50;47.80;;;;;;6091807;23;20461;-78
2023/02/16 16:58:13;;;;;;;4.35;4.03;;;13.40;48.20;;;;;;6065655;23;20436;-79
2023/02/16 17:00:41;;;;;;;4.45;4.05;;;13.40;48.30;;;;;;6066116;23;20381;-78
2023/02/16 17:03:13;;;;;;;4.60;4.20;;;13.20;48.60;;;;;;6092439;23;20833;-78
2023/02/16 17:05:42;;;;;;;4.00;3.75;;;13.00;49.00;;;;;;6066372;23;20421;-78
2023/02/16 17:08:10;;;;;;;4.75;4.40;;;12.80;49.50;;;;;;6066880;23;20405;-79
2023/02/16 17:10:39;;;;;;;4.88;4.47;;;12.50;50.10;;;;;;6066880;23;20408;-78
2023/02/16 17:13:12;;;;;;;5.45;5.05;;;12.30;51.60;;;;;;6066376;23;20404;-79
2023/02/16 17:15:42;;;;;;;4.85;4.55;;;12.10;52.20;;;;;;6066761;23;20381;-79
2023/02/16 17:18:14;;;;;;;5.68;5.28;;;12.00;52.50;;;;;;6067340;23;20727;-77
2023/02/16 17:20:42;;;;;;;5.40;5.00;;;12.00;52.50;;;;;;6066222;23;20441;-78
2023/02/16 17:23:15;;;;;;;4.88;4.57;;;11.90;52.70;;;;;;6093145;23;20373;-78
2023/02/16 17:25:42;;;;;;;5.53;5.13;;;11.80;52.80;;;;;;6093735;23;20377;-79
2023/02/16 17:28:12;;;;;;;5.00;4.67;;;11.70;53.30;;;;;;6063637;23;20426;-78
2023/02/16 17:30:40;;;;;;;5.50;5.10;;;11.60;53.60;;;;;;6063642;23;20422;-79
2023/02/16 17:33:08;;;;;;;5.37;4.97;;;11.50;54.20;;;;;;6062885;23;20414;-78
2023/02/16 17:35:41;;;;;;;5.20;4.80;;;11.30;54.40;;;;;;6063491;23;20716;-78
2023/02/16 17:38:19;;;;;;;5.10;4.70;;;11.30;54.40;;;;;;6064621;23;20823;-79
2023/02/16 17:40:52;;;;;;;5.97;5.47;;;11.10;54.80;;;;;;6062567;23;20863;-79
2023/02/16 17:43:20;;;;;;;5.13;4.82;;;10.80;56.70;;;;;;6064282;23;20399;-78
2023/02/16 17:45:48;;;;;;;5.82;5.32;;;10.60;57.60;;;;;;6063703;23;20756;-78
2023/02/16 17:48:21;;;;;;;5.20;4.82;;;10.60;57.70;;;;;;6063298;23;20403;-77
2023/02/16 17:50:50;;;;;;;5.78;5.38;;;10.50;57.80;;;;;;6065272;23;20383;-78
2023/02/16 17:53:22;;;;;;;4.80;4.50;;;10.50;58.10;;;;;;6063595;23;20392;-78
2023/02/16 17:55:52;;;;;;;5.38;5.05;;;10.50;58.60;;;;;;6063759;23;20442;-78
2023/02/16 17:58:20;;;;;;;5.70;5.30;;;10.30;58.80;;;;;;6064298;23;20801;-77
2023/02/16 18:00:47;;;;;;;4.85;4.55;;;10.30;59.10;;;;;;6064541;23;20435;-78
2023/02/16 18:03:14;;;;;;;5.20;4.80;;;10.20;59.60;;;;;;6063484;23;21220;-78
2023/02/16 18:05:41;;;;;;;5.45;5.05;;;10.20;59.80;;;;;;6064424;23;20387;-77
2023/02/16 18:08:10;;;;;;;5.65;5.20;;;10.20;59.80;;;;;;6064758;23;20386;-78
2023/02/16 18:10:42;;;;;;;6.20;5.60;;;10.10;59.90;;;;;;6064381;23;20380;-79
2023/02/16 18:13:10;;;;;;;6.00;5.50;;;10.00;59.90;;;;;;6062137;23;20753;-78
2023/02/16 18:15:38;;;;;;;5.90;5.50;;;9.80;61.50;;;;;;6062627;23;20383;-78
2023/02/16 18:18:07;;;;;;;5.78;5.38;;;9.60;62.20;;;;;;6062711;23;20403;-78
2023/02/16 18:20:34;;;;;;;5.80;5.40;;;9.60;63.40;;;;;;6062485;23;20379;-78
2023/02/16 18:23:01;;;;;;;5.82;5.43;;;9.50;63.60;;;;;;6061502;23;20407;-79
2023/02/16 18:25:28;;;;;;;5.47;4.97;;;9.40;64.00;;;;;;6061754;23;20431;-79
2023/02/16 18:27:55;;;;;;;5.13;4.80;;;9.40;63.70;;;;;;6060460;23;20451;-79
2023/02/16 18:30:25;;;;;;;4.68;4.38;;;9.40;63.50;;;;;;6062433;23;20450;-77
2023/02/16 18:32:52;;;;;;;5.00;4.60;;;9.30;63.10;;;;;;6061247;23;20405;-77
2023/02/16 18:35:19;;;;;;;5.67;5.17;;;9.30;63.40;;;;;;6062452;23;20399;-78
2023/02/16 18:37:46;;;;;;;5.75;5.35;;;9.20;65.10;;;;;;6062392;23;20383;-80
2023/02/16 18:40:18;;;;;;;5.57;5.18;;;8.90;67.60;;;;;;6060866;23;20847;-79
2023/02/16 18:42:46;;;;;;;6.30;5.90;;;8.90;68.70;;;;;;6062323;23;20393;-80
2023/02/16 18:45:13;;;;;;;6.97;6.47;;;8.80;69.70;;;;;;6061026;23;20478;-80
2023/02/16 18:47:43;;;;;;;7.50;6.93;;;8.70;71.50;;;;;;6063091;23;20439;-79
2023/02/16 18:50:11;;;;;;;7.63;7.03;;;8.60;74.10;;;;;;6061882;23;20387;-77
2023/02/16 18:52:41;;;;;;;8.20;7.43;;;8.70;74.80;;;;;;6063384;23;20387;-79
2023/02/16 18:55:09;;;;;;;7.03;6.53;;;8.70;74.60;;;;;;6062069;23;20907;-79
2023/02/16 18:57:36;;;;;;;8.00;7.43;;;8.80;73.20;;;;;;6063203;23;20371;-80
2023/02/16 19:00:08;;;;;;;6.97;6.57;;;8.90;74.80;;;;;;6062015;23;20379;-79
2023/02/16 19:02:35;;;;;;;7.35;6.85;;;8.90;72.70;;;;;;6061907;23;20387;-79
2023/02/16 19:05:03;;;;;;;7.18;6.68;;;9.00;71.20;;;;;;6062015;23;20760;-80
2023/02/16 19:07:30;;;;;;;7.23;6.73;;;9.00;71.20;;;;;;6062902;23;20838;-77
2023/02/16 19:09:57;;;;;;;6.15;5.70;;;9.00;72.40;;;;;;6063148;23;20855;-80
2023/02/16 19:12:25;;;;;;;5.90;5.50;;;9.00;70.30;;;;;;6063026;23;20379;-80
2023/02/16 19:14:51;;;;;;;5.90;5.50;;;9.00;69.60;;;;;;6063548;23;20454;-80
2023/02/16 19:17:19;;;;;;;5.70;5.30;;;9.00;69.30;;;;;;6060284;23;20450;-79
2023/02/16 19:19:48;;;;;;;6.28;5.80;;;9.00;69.40;;;;;;6059672;23;20452;-79
2023/02/16 19:22:15;;;;;;;5.75;5.30;;;9.00;70.50;;;;;;6060109;23;20379;-79
2023/02/16 19:24:42;;;;;;;5.53;5.17;;;8.90;70.00;;;;;;6062158;23;20383;-80
2023/02/16 19:27:09;;;;;;;5.40;5.00;;;8.80;69.70;;;;;;6065730;23;20426;-79
2023/02/16 19:29:36;;;;;;;4.82;4.53;;;8.70;70.90;;;;;;6067705;23;20884;-78
2023/02/16 19:32:04;;;;;;;4.95;4.55;;;8.60;72.10;;;;;;6066448;23;20377;-79
2023/02/16 19:34:32;;;;;;;5.25;4.85;;;8.60;72.40;;;;;;6067545;23;20373;-80
2023/02/16 19:36:59;;;;;;;5.03;4.72;;;8.50;74.20;;;;;;6066097;23;20381;-77
2023/02/16 19:39:26;;;;;;;5.22;4.82;;;8.30;77.00;;;;;;6066059;23;20389;-79
2023/02/16 19:41:53;;;;;;;5.88;5.47;;;8.40;75.60;;;;;;6065266;23;20432;-78
2023/02/16 19:44:20;;;;;;;5.90;5.50;;;8.40;75.30;;;;;;6065982;23;20439;-79
2023/02/16 19:46:48;;;;;;;6.10;5.60;;;8.40;74.70;;;;;;6066529;23;20453;-77
2023/02/16 19:49:18;;;;;;;6.15;5.70;;;8.40;74.40;;;;;;6092361;23;20842;-79
2023/02/16 19:51:46;;;;;;;6.88;6.38;;;8.40;75.60;;;;;;6068236;23;20583;-78
2023/02/16 19:54:14;;;;;;;5.93;5.53;;;8.40;77.00;;;;;;6067040;23;20373;-78
2023/02/16 19:56:41;;;;;;;5.97;5.47;;;8.30;78.30;;;;;;6067920;23;20373;-78
2023/02/16 19:59:08;;;;;;;6.15;5.75;;;8.40;75.80;;;;;;6067088;23;20410;-79
2023/02/16 20:01:35;;;;;;;6.00;5.50;;;8.40;76.00;;;;;;6067361;23;20392;-78
2023/02/16 20:04:02;;;;;;;5.35;5.00;;;8.30;75.50;;;;;;6066080;23;20377;-78
2023/02/16 20:06:33;;;;;;;4.80;4.50;;;8.40;74.80;;;;;;6066530;23;20369;-79
2023/02/16 20:09:00;;;;;;;5.05;4.75;;;8.40;74.90;;;;;;6066377;23;20410;-79
2023/02/16 20:11:28;;;;;;;5.43;5.10;;;8.30;74.90;;;;;;6090595;23;20423;-78
2023/02/16 20:13:57;;;;;;;5.20;4.82;;;8.30;75.10;;;;;;6042462;23;20388;-78
2023/02/16 20:16:25;;;;;;;5.05;4.75;;;8.20;75.40;;;;;;6042534;23;20369;-78
2023/02/16 20:18:53;;;;;;;5.65;5.25;;;8.20;75.90;;;;;;6066469;23;20386;-78
2023/02/16 20:21:26;;;;;;;6.28;5.78;;;8.10;76.60;;;;;;6065522;23;20436;-78
2023/02/16 20:23:55;;;;;;;5.90;5.50;;;7.80;81.20;;;;;;6066167;23;20381;-79
2023/02/16 20:26:35;;;;;;;5.70;5.30;;;7.60;82.70;;;;;;6065329;23;20377;-78
2023/02/16 20:29:05;;;;;;;6.07;5.63;;;7.60;81.20;;;;;;6065296;23;20467;-78
2023/02/16 20:31:42;;;;;;;5.15;4.85;;;7.40;84.80;;;;;;6065951;23;20714;-79
2023/02/16 20:34:09;;;;;;;5.78;5.38;;;7.30;83.20;;;;;;6064974;23;20412;-79
2023/02/16 20:36:37;;;;;;;5.43;5.10;;;7.30;82.00;;;;;;6091224;23;20381;-78
2023/02/16 20:39:05;;;;;;;5.32;5.03;;;7.20;83.50;;;;;;6066817;23;20842;-78
2023/02/16 20:41:33;;;;;;;5.95;5.53;;;7.20;84.50;;;;;;6090845;23;20702;-78
2023/02/16 20:44:02;;;;;;;5.68;5.18;;;7.10;84.80;;;;;;6091832;23;20880;-78
2023/02/16 20:46:30;;;;;;;5.20;4.90;;;7.10;84.90;;;;;;6065095;23;20468;-79
2023/02/16 20:48:57;;;;;;;5.50;5.10;;;7.00;84.90;;;;;;6067574;23;20409;-77
2023/02/16 20:51:24;;;;;;;5.82;5.43;;;7.00;85.60;;;;;;6065892;23;20377;-79
2023/02/16 20:53:51;;;;;;;5.68;5.30;;;7.00;87.20;;;;;;6066746;23;20393;-78
2023/02/16 20:56:23;;;;;;;5.50;5.10;;;6.90;85.80;;;;;;6068579;23;20411;-77
2023/02/16 20:58:52;;;;;;;5.20;4.90;;;6.80;86.10;;;;;;6067979;23;20417;-78
2023/02/16 21:01:23;;;;;;;5.40;5.00;;;6.70;87.10;;;;;;6066556;23;20769;-78
2023/02/16 21:03:51;;;;;;;5.00;4.70;;;6.60;90.00;;;;;;6091051;23;20440;-77
2023/02/16 21:06:18;;;;;;;5.53;5.13;;;6.50;89.50;;;;;;6065338;23;20463;-77
2023/02/16 21:08:46;;;;;;;5.40;5.00;;;6.50;88.80;;;;;;6068338;23;20854;-78
2023/02/16 21:11:13;;;;;;;5.55;5.15;;;6.40;90.20;;;;;;6093320;23;20381;-78
2023/02/16 21:13:40;;;;;;;5.32;4.93;;;6.30;90.00;;;;;;6066191;23;20377;-78
2023/02/16 21:16:08;;;;;;;5.13;4.83;;;6.30;89.00;;;;;;6066966;23;20374;-79
2023/02/16 21:18:36;;;;;;;5.45;5.05;;;6.30;88.30;;;;;;6065726;23;20378;-76
2023/02/16 21:21:07;;;;;;;5.40;5.10;;;6.30;88.20;;;;;;6068778;23;20730;-78
2023/02/16 21:23:34;;;;;;;5.50;5.10;;;6.20;88.50;;;;;;6067457;23;20381;-78
2023/02/16 21:26:03;;;;;;;5.45;5.05;;;6.20;89.20;;;;;;6068458;23;20385;-78
2023/02/16 21:28:31;;;;;;;5.67;5.27;;;6.10;89.80;;;;;;6061687;23;20390;-78
2023/02/16 21:31:06;;;;;;;5.65;5.25;;;6.10;90.60;;;;;;6062728;23;20375;-79
2023/02/16 21:33:33;;;;;;;5.75;5.25;;;6.00;90.10;;;;;;6060662;23;20756;-78
2023/02/16 21:36:05;;;;;;;5.40;5.10;;;5.90;90.40;;;;;;6039366;23;20902;-78
2023/02/16 21:38:33;;;;;;;5.50;5.10;;;5.80;90.30;;;;;;6039149;23;20382;-79
2023/02/16 21:41:25;;;;;;;5.60;5.20;;;5.70;90.30;;;;;;6063382;23;20407;-78
2023/02/16 21:44:07;;;;;;;5.80;5.40;;;5.70;91.00;;;;;;6063728;23;20387;-79
2023/02/16 21:46:35;;;;;;;5.85;5.45;;;5.60;91.20;;;;;;6063306;23;20375;-77
2023/02/16 21:49:04;;;;;;;5.53;5.13;;;5.50;93.60;;;;;;6064819;23;20486;-78
2023/02/16 21:51:34;;;;;;;5.18;4.82;;;5.50;95.40;;;;;;6062463;23;20402;-79
2023/02/16 21:54:04;;;;;;;5.07;4.78;;;5.50;94.30;;;;;;6065217;23;20382;-78
2023/02/16 21:56:38;;;;;;;4.80;4.50;;;5.50;94.60;;;;;;6062507;23;20899;-78
2023/02/16 21:59:14;;;;;;;5.28;4.97;;;5.50;95.20;;;;;;6064165;23;20371;-78
2023/02/16 22:01:45;;;;;;;4.03;3.83;;;5.50;96.40;;;;;;6062141;23;20915;-77
2023/02/16 22:04:15;;;;;;;4.32;4.03;;;5.50;96.60;;;;;;6063555;23;20387;-81
2023/02/16 22:06:45;;;;;;;5.95;5.55;;;5.50;96.20;;;;;;6063797;23;20866;-80
2023/02/16 22:09:16;;;;;;;5.55;5.15;;;5.50;95.40;;;;;;6063716;23;20473;-79
2023/02/16 22:11:44;;;;;;;5.90;5.43;;;5.30;94.00;;;;;;6063722;23;20406;-79
2023/02/16 22:14:11;;;;;;;5.45;5.15;;;5.00;95.20;;;;;;6063445;23;20391;-78
2023/02/16 22:16:39;;;;;;;5.77;5.43;;;5.00;95.50;;;;;;6063274;23;20803;-79
2023/02/16 22:19:11;;;;;;;5.57;5.18;;;4.90;95.00;;;;;;6064462;23;20389;-78
2023/02/16 22:21:40;;;;;;;5.10;4.80;;;4.80;94.80;;;;;;6062721;23;20379;-79
2023/02/16 22:24:10;;;;;;;9.55;8.85;;;4.70;94.60;;;;;;6063644;23;20447;-81
2023/02/16 22:26:37;;;;;;;7.53;7.03;;;4.60;98.30;;;;;;6062643;23;20782;-79
2023/02/16 22:29:06;;;;;;;7.20;6.70;;;4.50;98.30;;;;;;6062766;23;20394;-79
2023/02/16 22:31:33;;;;;;;6.90;6.40;;;4.50;97.40;;;;;;6061925;23;20761;-78
2023/02/16 22:34:11;;;;;;;8.55;7.85;;;4.60;97.00;;;;;;6062390;23;20382;-78
2023/02/16 22:36:39;;;;;;;8.02;7.43;;;4.50;98.60;;;;;;6062199;23;20379;-79
2023/02/16 22:39:06;;;;;;;8.20;7.50;;;4.50;97.80;;;;;;6062471;23;20398;-79
2023/02/16 22:41:34;;;;;;;7.80;7.20;;;4.40;97.30;;;;;;6063200;23;20375;-77
2023/02/16 22:44:01;;;;;;;7.85;7.25;;;4.50;96.80;;;;;;6063632;23;20379;-78
2023/02/16 22:46:29;;;;;;;7.50;7.00;;;4.40;97.30;;;;;;6062763;23;20440;-77
2023/02/16 22:48:57;;;;;;;8.23;7.55;;;4.40;97.10;;;;;;6062501;23;20395;-79
2023/02/16 22:51:27;;;;;;;6.85;6.35;;;4.40;98.00;;;;;;6063383;23;20463;-78
2023/02/16 22:53:56;;;;;;;7.38;6.88;;;4.40;97.30;;;;;;6062423;23;20387;-77
2023/02/16 22:56:25;;;;;;;7.10;6.60;;;4.40;96.40;;;;;;6064993;23;20435;-78
2023/02/16 22:58:53;;;;;;;6.68;6.18;;;4.30;96.70;;;;;;6062868;23;20372;-78
2023/02/16 23:01:23;;;;;;;5.70;5.30;;;4.20;97.20;;;;;;6065228;23;20431;-79
2023/02/16 23:03:57;;;;;;;5.38;4.97;;;4.20;98.60;;;;;;6062542;23;20415;-78
2023/02/16 23:06:27;;;;;;;5.47;5.07;;;4.10;99.10;;;;;;6063720;23;20383;-78
2023/02/16 23:08:56;;;;;;;5.85;5.43;;;4.10;99.70;;;;;;6063123;23;20430;-79
2023/02/16 23:11:25;;;;;;;5.63;5.22;;;4.00;99.90;;;;;;6062908;23;20383;-79
2023/02/16 23:13:52;;;;;;;5.50;5.10;;;3.90;99.90;;;;;;6062596;23;20387;-79
2023/02/16 23:16:21;;;;;;;5.37;5.07;;;3.90;99.90;;;;;;6064250;23;20410;-78
2023/02/16 23:18:49;;;;;;;5.78;5.38;;;3.90;99.70;;;;;;6062906;23;20462;-80
2023/02/16 23:21:17;;;;;;;5.70;5.30;;;3.90;99.60;;;;;;6063807;23;20816;-79
2023/02/16 23:23:45;;;;;;;6.10;5.70;;;3.90;99.90;;;;;;6062775;23;20383;-78
2023/02/16 23:26:12;;;;;;;5.70;5.30;;;3.90;99.90;;;;;;6063290;23;20704;-78
2023/02/16 23:28:41;;;;;;;6.63;6.05;;;3.90;99.90;;;;;;6063379;23;20391;-79
2023/02/16 23:31:09;;;;;;;6.03;5.63;;;3.90;99.90;;;;;;6063135;23;20383;-79